home / openregs

documents

Regulatory documents from Regulations.gov including rules, proposed rules, notices, and supporting materials.

Data license: Public Domain (U.S. Government data) · Data source: Federal Register API & Regulations.gov API

53 rows where docket_id = "EPA-HQ-OPPT-2009-0156" and posted_year = 2011 sorted by posted_date descending

✎ View and edit SQL

This data as json, CSV (advanced)

Suggested facets: posted_date, last_modified, posted_date (date), last_modified (date)

posted_year 1

  • 2011 · 53 ✖

document_type 1

  • Supporting & Related Material 53

agency_id 1

  • EPA 53
id agency_id docket_id title document_type subtype posted_date ▲ posted_year posted_month comment_start_date comment_end_date last_modified fr_doc_num open_for_comment withdrawn object_id
EPA-HQ-OPPT-2009-0156-0104 EPA None EPA-HQ-OPPT-2009-0156 Health Effects Draft Test Guidelines: OPPTS 870.1350 Acute Inhalation Toxicity with Histopathology [EPA 712-C-96-291] Supporting & Related Material Publication - USEPA 2011-06-29T04:00:00Z 2011 6     2011-06-29T15:46:05Z   0 0 0900006480eb3f69
EPA-HQ-OPPT-2009-0156-0099 EPA None EPA-HQ-OPPT-2009-0156 Health Effects Draft Guidelines: OPPTS 870.6850 Peripheral Nerve Function [EPA 712-C-96-241] Supporting & Related Material Publication - USEPA 2011-06-27T04:00:00Z 2011 6     2011-06-27T18:40:50Z   0 0 0900006480e6b7ec
EPA-HQ-OPPT-2009-0156-0102 EPA None EPA-HQ-OPPT-2009-0156 Health Effects Draft Guidelines: OPPTS 870.8223 Pharmacokinetic Test [EPA 712-C-96-250] Supporting & Related Material Publication - USEPA 2011-06-27T04:00:00Z 2011 6     2011-06-27T18:40:51Z   0 0 0900006480e6b7f2
EPA-HQ-OPPT-2009-0156-0096 EPA None EPA-HQ-OPPT-2009-0156 Health Effects Draft Guidelines: OPPTS 870.5450 Rodent Dominant Lethal Assay [EPA 712-C-96-227] Supporting & Related Material Publication - USEPA 2011-06-27T04:00:00Z 2011 6     2011-06-27T18:40:50Z   0 0 0900006480e6b7e2
EPA-HQ-OPPT-2009-0156-0093 EPA None EPA-HQ-OPPT-2009-0156 Health Effects Draft Guidelines: OPPTS 870.3150 Subchronic Nonrodent Oral Toxicity--90-Day [EPA 712-C-96-200] Supporting & Related Material Publication - USEPA 2011-06-27T04:00:00Z 2011 6     2011-06-27T18:40:49Z   0 0 0900006480e6b7cf
EPA-HQ-OPPT-2009-0156-0100 EPA None EPA-HQ-OPPT-2009-0156 Health Effects Draft Guidelines: OPPTS 870.6855 Neurophysiology: Sensory Evoked Potentials [EPA 712-C-96-242] Supporting & Related Material Publication - USEPA 2011-06-27T04:00:00Z 2011 6     2011-06-27T18:40:51Z   0 0 0900006480e6b7ed
EPA-HQ-OPPT-2009-0156-0094 EPA None EPA-HQ-OPPT-2009-0156 Health Effects Draft Guidelines: OPPTS 870.5385 In Vivo Mammalian Cytogenetics Tests: Bone Marrow Chromosomal Analysis [EPA 712-C-96-225] Supporting & Related Material Publication - USEPA 2011-06-27T04:00:00Z 2011 6     2011-06-27T18:40:50Z   0 0 0900006480e6b7e0
EPA-HQ-OPPT-2009-0156-0095 EPA None EPA-HQ-OPPT-2009-0156 Health Effects Draft Guidelines: OPPTS 870.5395 In Vivo Mammalian Cytogenetics Tests: Erythrocyte Micronucleus Assay [EPA 712-C-96-226] Supporting & Related Material Publication - USEPA 2011-06-27T04:00:00Z 2011 6     2011-06-27T18:40:50Z   0 0 0900006480e6b7e1
EPA-HQ-OPPT-2009-0156-0097 EPA None EPA-HQ-OPPT-2009-0156 Health Effects Draft Guidelines: OPPTS 870.5460 Rodent Heritable Translocation Assays [EPA 712-C-96-228] Supporting & Related Material Publication - USEPA 2011-06-27T04:00:00Z 2011 6     2011-06-27T18:40:50Z   0 0 0900006480e6b7e3
EPA-HQ-OPPT-2009-0156-0101 EPA None EPA-HQ-OPPT-2009-0156 Health Effects Draft Guidelines: OPPTS 870.7800 Immunotoxicity [EPA 712-C-96-351] Supporting & Related Material Publication - USEPA 2011-06-27T04:00:00Z 2011 6     2011-06-27T18:40:51Z   0 0 0900006480e6b7f1
EPA-HQ-OPPT-2009-0156-0103 EPA None EPA-HQ-OPPT-2009-0156 Health Effects Draft Guidelines: OPPTS 870.8600 Developmental Neurotoxicity Screen [EPA 712-C-96-258] Supporting & Related Material Publication - USEPA 2011-06-27T04:00:00Z 2011 6     2011-06-27T18:40:51Z   0 0 0900006480e6b7fb
EPA-HQ-OPPT-2009-0156-0098 EPA None EPA-HQ-OPPT-2009-0156 Health Effects Draft Guidelines: OPPTS 870.6500 Schedule-Controlled Operant Behavior [EPA 712-C-96-240] Supporting & Related Material Publication - USEPA 2011-06-27T04:00:00Z 2011 6     2011-06-27T18:40:50Z   0 0 0900006480e6b7eb
EPA-HQ-OPPT-2009-0156-0088 EPA None EPA-HQ-OPPT-2009-0156 Health Effects Draft Guidelines: OPPTS 870.6300 Developmental Neurotoxicity Study [EPA 712-C-96-239] Supporting & Related Material Publication - USEPA 2011-06-24T04:00:00Z 2011 6     2011-06-24T15:27:39Z   0 0 0900006480e6b7ea
EPA-HQ-OPPT-2009-0156-0080 EPA None EPA-HQ-OPPT-2009-0156 Health Effects Draft Guidelines: OPPTS 870.7200 Domestic Animal Safety [EPA 712-C-96-349] Supporting & Related Material Publication - USEPA 2011-06-24T04:00:00Z 2011 6     2011-06-24T12:21:41Z   0 0 0900006480e6b7ee
EPA-HQ-OPPT-2009-0156-0086 EPA None EPA-HQ-OPPT-2009-0156 Health Effects Draft Guidelines: OPPTS 870.8500 Toxicokinetic Test [EPA 712-C-96-257] Supporting & Related Material Publication - USEPA 2011-06-24T04:00:00Z 2011 6     2011-06-24T12:21:42Z   0 0 0900006480e6b7fa
EPA-HQ-OPPT-2009-0156-0076 EPA None EPA-HQ-OPPT-2009-0156 Health Effects Draft Guidelines: OPPTS 870.5575 Mitotic Gene Conversion in Saccharomyces cerevisiae [EPA 712-C-96-232] Supporting & Related Material Publication - USEPA 2011-06-24T04:00:00Z 2011 6     2011-06-24T12:21:40Z   0 0 0900006480e6b7e6
EPA-HQ-OPPT-2009-0156-0083 EPA None EPA-HQ-OPPT-2009-0156 Health Effects Draft Guidelines: OPPTS 870.8355 Combined Chronic Toxicity/Carcinogenicity Testing of Respirable Fibrous Particles [EPA 712-C-99-352] Supporting & Related Material Publication - USEPA 2011-06-24T04:00:00Z 2011 6     2011-06-24T12:21:42Z   0 0 0900006480e6b7f7
EPA-HQ-OPPT-2009-0156-0089 EPA None EPA-HQ-OPPT-2009-0156 Health Effects Draft Guidelines: OPPTS 870.7485 Metabolism and Pharmacokinetics [EPA 712-C-95-244] Supporting & Related Material Publication - USEPA 2011-06-24T04:00:00Z 2011 6     2011-06-24T15:27:39Z   0 0 0900006480e6b7ef
EPA-HQ-OPPT-2009-0156-0081 EPA None EPA-HQ-OPPT-2009-0156 Health Effects Draft Guidelines: OPPTS 870.8320 Oral/Dermal Pharmacokinetics [EPA 712-C-96-253] Supporting & Related Material Publication - USEPA 2011-06-24T04:00:00Z 2011 6     2011-06-24T12:21:41Z   0 0 0900006480e6b7f5
EPA-HQ-OPPT-2009-0156-0075 EPA None EPA-HQ-OPPT-2009-0156 Health Effects Draft Guidelines: OPPTS 870.5375 In Vitro Mammalian Cytogenetics [EPA 712-C-96-223] Supporting & Related Material Publication - USEPA 2011-06-24T04:00:00Z 2011 6     2011-06-24T12:21:40Z   0 0 0900006480e6b7de
EPA-HQ-OPPT-2009-0156-0079 EPA None EPA-HQ-OPPT-2009-0156 Health Effects Draft Guidelines: OPPTS 870.6100 Delayed Neurotoxicity of Organophosphorus Substances Following Acute and 28-Day Exposure [EPA 712-C-96-237] Supporting & Related Material Publication - USEPA 2011-06-24T04:00:00Z 2011 6     2011-06-24T12:21:41Z   0 0 0900006480e6b7e9
EPA-HQ-OPPT-2009-0156-0084 EPA None EPA-HQ-OPPT-2009-0156 Health Effects Draft Guidelines: OPPTS 870.8360 Pharmacokinetics of Isopropanal [EPA 712-C-96-255] Supporting & Related Material Publication - USEPA 2011-06-24T04:00:00Z 2011 6     2011-06-24T12:21:42Z   0 0 0900006480e6b7f8
EPA-HQ-OPPT-2009-0156-0087 EPA None EPA-HQ-OPPT-2009-0156 Health Effects Draft Guidelines: OPPTS 870.5380 In Vivo Mammalian Cytogenetics Tests: Spermatogonial Chromosomal Aberrations [EPA 712-C-96-224] Supporting & Related Material Publication - USEPA 2011-06-24T04:00:00Z 2011 6     2011-06-24T15:27:38Z   0 0 0900006480e6b7df
EPA-HQ-OPPT-2009-0156-0085 EPA None EPA-HQ-OPPT-2009-0156 Health Effects Draft Guidelines: OPPTS 870.8380 Inhalation and Dermal Pharmacokinetics of Commercial Hexane [EPA 712-C-96-256] Supporting & Related Material Publication - USEPA 2011-06-24T04:00:00Z 2011 6     2011-06-24T12:21:42Z   0 0 0900006480e6b7f9
EPA-HQ-OPPT-2009-0156-0091 EPA None EPA-HQ-OPPT-2009-0156 Health Effects Draft Guidelines: OPPTS 870.8700 Subchronic Oral Toxicity Test [EPA 712-C-96-259] Supporting & Related Material Publication - USEPA 2011-06-24T04:00:00Z 2011 6     2011-06-24T15:27:40Z   0 0 0900006480e6b7fc
EPA-HQ-OPPT-2009-0156-0077 EPA None EPA-HQ-OPPT-2009-0156 Health Effects Draft Guidelines: OPPTS 870.5900 In Vitro Sister Chromatid Exchange Assay [EPA 712-C-96-234] Supporting & Related Material Publication - USEPA 2011-06-24T04:00:00Z 2011 6     2011-06-24T12:21:41Z   0 0 0900006480e6b7e7
EPA-HQ-OPPT-2009-0156-0078 EPA None EPA-HQ-OPPT-2009-0156 Health Effects Draft Guidelines: OPPTS 870.5915 In Vivo Sister Chromatid Exchange Assay [EPA 712-C-96-235] Supporting & Related Material Publication - USEPA 2011-06-24T04:00:00Z 2011 6     2011-06-24T12:21:41Z   0 0 0900006480e6b7e8
EPA-HQ-OPPT-2009-0156-0090 EPA None EPA-HQ-OPPT-2009-0156 Health Effects Draft Guidelines: OPPTS 870.7600 Dermal Penetration [EPA 712-C-96-350] Supporting & Related Material Publication - USEPA 2011-06-24T04:00:00Z 2011 6     2011-06-24T15:27:40Z   0 0 0900006480e6b7f0
EPA-HQ-OPPT-2009-0156-0082 EPA None EPA-HQ-OPPT-2009-0156 Health Effects Draft Guidelines: OPPTS 870.8340 Oral and Inhalation Pharmacokinetic Test [EPA 712-C-96-254] Supporting & Related Material Publication - USEPA 2011-06-24T04:00:00Z 2011 6     2011-06-24T12:21:42Z   0 0 0900006480e6b7f6
EPA-HQ-OPPT-2009-0156-0092 EPA None EPA-HQ-OPPT-2009-0156 Health Effects Draft Guidelines: OPPTS 870.8800 Morphologic Transformation of Cells in Culture [EPA 712-C-96-260] Supporting & Related Material Publication - USEPA 2011-06-24T04:00:00Z 2011 6     2011-06-24T15:27:40Z   0 0 0900006480e6b7fd
EPA-HQ-OPPT-2009-0156-0067 EPA None EPA-HQ-OPPT-2009-0156 Health Effects Draft Guidelines: OPPTS 870.5195 Mouse Biochemical Specific Locus Test [EPA 712-C-96-216] Supporting & Related Material Publication - USEPA 2011-06-23T04:00:00Z 2011 6     2011-06-23T18:26:31Z   0 0 0900006480e6b7d8
EPA-HQ-OPPT-2009-0156-0063 EPA None EPA-HQ-OPPT-2009-0156 Health Effects Draft Guidelines: OPPTS 870.3800 Reproduction and Fertility Effects [EPA 712-C-96-208] Supporting & Related Material Publication - USEPA 2011-06-23T04:00:00Z 2011 6     2011-06-23T16:27:23Z   0 0 0900006480e6b7d6
EPA-HQ-OPPT-2009-0156-0064 EPA None EPA-HQ-OPPT-2009-0156 Health Effects Draft Guidelines: OPPTS 870.5140 Gene Mutation in Aspergillus nidulans [EPA 712-C-96-215] Supporting & Related Material Publication - USEPA 2011-06-23T04:00:00Z 2011 6     2011-06-23T16:27:23Z   0 0 0900006480e6b7d7
EPA-HQ-OPPT-2009-0156-0066 EPA None EPA-HQ-OPPT-2009-0156 Health Effects Draft Guidelines: OPPTS 870.8300 Dermal Absorption for Compounds That Are Volatile and Metabolized to Carbon Dioxide [EPA 712-C-96-252] Supporting & Related Material Publication - USEPA 2011-06-23T04:00:00Z 2011 6     2011-06-23T16:36:42Z   0 0 0900006480e6b7f4
EPA-HQ-OPPT-2009-0156-0052 EPA None EPA-HQ-OPPT-2009-0156 Health Effects Draft Guidelines: OPPTS 870.1100 Acute Oral Toxicity [EPA 712-C-96-190] Supporting & Related Material Publication - USEPA 2011-06-23T04:00:00Z 2011 6     2011-06-23T16:27:21Z   0 0 0900006480e6b7c7
EPA-HQ-OPPT-2009-0156-0057 EPA None EPA-HQ-OPPT-2009-0156 Health Effects Draft Guidelines: OPPTS 870.3200 Repeated Dose Dermal Toxicity--21/28 Days [EPA 712-C-96-201] Supporting & Related Material Publication - USEPA 2011-06-23T04:00:00Z 2011 6     2011-06-23T16:27:22Z   0 0 0900006480e6b7d0
EPA-HQ-OPPT-2009-0156-0060 EPA None EPA-HQ-OPPT-2009-0156 Health Effects Draft Guidelines: OPPTS 870.3500 Preliminary Developmental Toxicity [EPA 712-C-96-205] Supporting & Related Material Publication - USEPA 2011-06-23T04:00:00Z 2011 6     2011-06-23T16:27:22Z   0 0 0900006480e6b7d3
EPA-HQ-OPPT-2009-0156-0062 EPA None EPA-HQ-OPPT-2009-0156 Health Effects Draft Guidelines: OPPTS 870.3700 Prenatal Developmental Toxicity Study [EPA 712-C-96-207] Supporting & Related Material Publication - USEPA 2011-06-23T04:00:00Z 2011 6     2011-06-23T16:27:23Z   0 0 0900006480e6b7d5
EPA-HQ-OPPT-2009-0156-0068 EPA None EPA-HQ-OPPT-2009-0156 Health Effects Draft Guidelines: OPPTS 870.5200 Mouse Visible Specific Locus Test [EPA 712-C-96-217] Supporting & Related Material Publication - USEPA 2011-06-23T04:00:00Z 2011 6     2011-06-23T18:26:31Z   0 0 0900006480e6b7d9
EPA-HQ-OPPT-2009-0156-0071 EPA None EPA-HQ-OPPT-2009-0156 Health Effects Draft Guidelines: OPPTS 870.5275 Sex-Linked Recessive Lethal Test in Drosophila melanogaster [EPA 712-C-96-220] Supporting & Related Material Publication - USEPA 2011-06-23T04:00:00Z 2011 6     2011-06-23T18:26:31Z   0 0 0900006480e6b7dc
EPA-HQ-OPPT-2009-0156-0072 EPA None EPA-HQ-OPPT-2009-0156 Health Effects Draft Guidelines: OPPTS 870.5300 Detection of Gene Mutations in Somatic Cells in Culture [EPA 712-C-96-221] Supporting & Related Material Publication - USEPA 2011-06-23T04:00:00Z 2011 6     2011-06-23T18:26:32Z   0 0 0900006480e6b7dd
EPA-HQ-OPPT-2009-0156-0073 EPA None EPA-HQ-OPPT-2009-0156 Health Effects Draft Guidelines: OPPTS 870.5500 Bacterial DNA Damage or Repair Tests [EPA 712-C-96-229] Supporting & Related Material Publication - USEPA 2011-06-23T04:00:00Z 2011 6     2011-06-23T18:26:32Z   0 0 0900006480e6b7e4
EPA-HQ-OPPT-2009-0156-0053 EPA None EPA-HQ-OPPT-2009-0156 Health Effects Test Guidelines: OPPTS 870.1200 Acute Dermal Toxicity [EPA 712-C-96-192] Supporting & Related Material Publication - USEPA 2011-06-23T04:00:00Z 2011 6     2011-06-23T16:27:21Z   0 0 0900006480e6b7c8
EPA-HQ-OPPT-2009-0156-0058 EPA None EPA-HQ-OPPT-2009-0156 Health Effects Draft Guidelines: OPPTS 870.3250 Subchronic Dermal Toxicity--90 Days [EPA 712-C-96-202] Supporting & Related Material Publication - USEPA 2011-06-23T04:00:00Z 2011 6     2011-06-23T16:27:22Z   0 0 0900006480e6b7d1
EPA-HQ-OPPT-2009-0156-0059 EPA None EPA-HQ-OPPT-2009-0156 Health Effects Draft Guidelines: OPPTS 870.3465 Subchronic Inhalation Toxicity [EPA 712-C-96-204] Supporting & Related Material Publication - USEPA 2011-06-23T04:00:00Z 2011 6     2011-06-23T16:27:22Z   0 0 0900006480e6b7d2
EPA-HQ-OPPT-2009-0156-0070 EPA None EPA-HQ-OPPT-2009-0156 Health Effects Draft Guidelines: OPPTS 870.5265 The Salmonella typhimurium Reverse Mutation Assay [EPA 712-C-96-219] Supporting & Related Material Publication - USEPA 2011-06-23T04:00:00Z 2011 6     2011-06-23T18:26:31Z   0 0 0900006480e6b7db
EPA-HQ-OPPT-2009-0156-0074 EPA None EPA-HQ-OPPT-2009-0156 Health Effects Draft Guidelines: OPPTS 870.5550 Unscheduled DNA Synthesis in Mammalian Cells in Culture [EPA 712-C-96-230] Supporting & Related Material Publication - USEPA 2011-06-23T04:00:00Z 2011 6     2011-06-23T18:26:32Z   0 0 0900006480e6b7e5
EPA-HQ-OPPT-2009-0156-0054 EPA None EPA-HQ-OPPT-2009-0156 Health Effects Test Guidelines: OPPTS 870.1300 Acute Inhalation Toxicity [EPA 712-C-96-193] Supporting & Related Material Publication - USEPA 2011-06-23T04:00:00Z 2011 6     2011-06-23T16:27:21Z   0 0 0900006480e6b7c9
EPA-HQ-OPPT-2009-0156-0055 EPA None EPA-HQ-OPPT-2009-0156 Health Effects Draft Guidelines: OPPTS 870.2600 Skin Sensitization [EPA 712-C-96-197] Supporting & Related Material Publication - USEPA 2011-06-23T04:00:00Z 2011 6     2011-06-23T16:27:21Z   0 0 0900006480e6b7ca
EPA-HQ-OPPT-2009-0156-0056 EPA None EPA-HQ-OPPT-2009-0156 Health Effects Draft Guidelines: OPPTS 870.3100 90-Day Oral Toxicity [EPA 712-C-96-199] Supporting & Related Material Publication - USEPA 2011-06-23T04:00:00Z 2011 6     2011-06-23T16:27:22Z   0 0 0900006480e6b7ce
EPA-HQ-OPPT-2009-0156-0061 EPA None EPA-HQ-OPPT-2009-0156 Health Effects Draft Guidelines: OPPTS 870.3600 Inhalation Developmental Toxicity [EPA 712-C-96-206] Supporting & Related Material Publication - USEPA 2011-06-23T04:00:00Z 2011 6     2011-06-23T16:27:22Z   0 0 0900006480e6b7d4
EPA-HQ-OPPT-2009-0156-0069 EPA None EPA-HQ-OPPT-2009-0156 Health Effects Draft Guidelines: OPPTS 870.5250 Gene Mutation in Neurospora crassa [EPA 712-C-96-218] Supporting & Related Material Publication - USEPA 2011-06-23T04:00:00Z 2011 6     2011-06-23T18:26:31Z   0 0 0900006480e6b7da
EPA-HQ-OPPT-2009-0156-0065 EPA None EPA-HQ-OPPT-2009-0156 Health Effects Draft Guidelines: OPPTS 870.8245 Dermal Pharmacokinetics of DGBE and DGBA [EPA 712-C-96-251] Supporting & Related Material Publication - USEPA 2011-06-23T04:00:00Z 2011 6     2011-06-23T16:27:23Z   0 0 0900006480e6b7f3

Advanced export

JSON shape: default, array, newline-delimited, object

CSV options:

CREATE TABLE documents (
    id TEXT PRIMARY KEY,
    agency_id TEXT,
    docket_id TEXT REFERENCES dockets(id),
    title TEXT,
    document_type TEXT,
    subtype TEXT,
    posted_date TEXT,
    posted_year INTEGER,
    posted_month INTEGER,
    comment_start_date TEXT,
    comment_end_date TEXT,
    last_modified TEXT,
    fr_doc_num TEXT,
    open_for_comment INTEGER,
    withdrawn INTEGER,
    object_id TEXT
);
CREATE INDEX idx_docs_agency ON documents(agency_id);
CREATE INDEX idx_docs_docket ON documents(docket_id);
CREATE INDEX idx_docs_date ON documents(posted_date);
CREATE INDEX idx_docs_year ON documents(posted_year);
CREATE INDEX idx_docs_type ON documents(document_type);
CREATE INDEX idx_docs_frnum ON documents(fr_doc_num);
CREATE INDEX idx_docs_comment_end ON documents(comment_end_date) WHERE comment_end_date IS NOT NULL AND withdrawn = 0;
Powered by Datasette · Queries took 643.972ms · Data license: Public Domain (U.S. Government data) · Data source: Federal Register API & Regulations.gov API